createdAt,value
2018-11-07T00:00:53.433Z,76.35
2018-11-07T00:01:54.279Z,76.06
2018-11-07T00:02:56.212Z,76.5
2018-11-07T00:03:57.142Z,77.3
2018-11-07T00:04:57.666Z,76.92
2018-11-07T00:05:58.739Z,77.11
2018-11-07T00:06:59.823Z,76.82
2018-11-07T00:08:00.723Z,77.11
2018-11-07T00:09:01.884Z,77.21
2018-11-07T00:10:02.681Z,76.82
2018-11-07T00:11:04.482Z,77.11
2018-11-07T00:12:04.777Z,76.82
2018-11-07T00:13:05.852Z,76.73
2018-11-07T00:14:06.746Z,76.73
2018-11-07T00:15:07.420Z,76.82
2018-11-07T00:16:08.504Z,77.69
2018-11-07T00:17:09.148Z,77.97
2018-11-07T00:18:09.674Z,78.16
2018-11-07T00:19:10.474Z,78.36
2018-11-07T00:20:11.827Z,78.26
2018-11-07T00:21:12.347Z,78.79
2018-11-07T00:22:13.640Z,78.51
2018-11-07T00:23:14.159Z,78.41
2018-11-07T00:24:14.958Z,78.03
2018-11-07T00:25:15.764Z,78.45
2018-11-07T00:26:15.951Z,78.16
2018-11-07T00:27:16.136Z,78.16
2018-11-07T00:28:17.540Z,78.36
2018-11-07T00:29:18.062Z,78.36
2018-11-07T00:30:18.964Z,78.45
2018-11-07T00:31:20.139Z,78.64
2018-11-07T00:32:20.987Z,78.45
2018-11-07T00:33:21.337Z,78.45
2018-11-07T00:34:21.868Z,78.16
2018-11-07T00:35:22.500Z,78.45
2018-11-07T00:36:23.412Z,77.78
2018-11-07T00:37:23.931Z,78.16
2018-11-07T00:38:24.841Z,78.26
2018-11-07T00:39:25.364Z,78.26
2018-11-07T00:40:27.165Z,78.36
2018-11-07T00:41:27.236Z,78.26
2018-11-07T00:42:29.882Z,78.26
2018-11-07T00:43:30.205Z,78.36
2018-11-07T00:44:31.006Z,78.36
2018-11-07T00:45:31.807Z,78.07
2018-11-07T00:46:32.609Z,78.55
2018-11-07T00:47:33.126Z,78.83
2018-11-07T00:48:33.921Z,78.36
2018-11-07T00:49:34.723Z,78.55
2018-11-07T00:50:35.800Z,78.74
2018-11-07T00:51:36.604Z,78.64
2018-11-07T00:52:37.730Z,78.74
2018-11-07T00:53:37.804Z,79.02
2018-11-07T00:54:38.880Z,79.46
2018-11-07T00:55:39.404Z,79.27
2018-11-07T00:56:39.644Z,79.46
2018-11-07T00:57:40.889Z,78.99
2018-11-07T00:58:42.530Z,79.56
2018-11-07T00:59:43.331Z,79.56
2018-11-07T01:00:45.415Z,79.94
2018-11-07T01:01:45.765Z,80.22
2018-11-07T01:02:46.166Z,81.47
2018-11-07T01:03:47.235Z,81.52
2018-11-07T01:04:48.593Z,81.52
2018-11-07T01:05:49.387Z,82
2018-11-07T01:06:49.910Z,82.29
2018-11-07T01:07:50.706Z,82.38
2018-11-07T01:08:51.505Z,82.29
2018-11-07T01:09:53.144Z,82.19
2018-11-07T01:10:52.962Z,82
2018-11-07T01:11:53.488Z,81.62
2018-11-07T01:12:54.057Z,82
2018-11-07T01:13:55.411Z,81.52
2018-11-07T01:14:56.045Z,82
2018-11-07T01:15:56.846Z,81.9
2018-11-07T01:16:57.650Z,81.52
2018-11-07T01:17:58.171Z,81.43
2018-11-07T01:18:59.247Z,81.33
2018-11-07T01:20:00.334Z,81.43
2018-11-07T01:21:00.707Z,81.33
2018-11-07T01:22:01.773Z,80.85
2018-11-07T01:23:02.348Z,81.33
2018-11-07T01:24:03.147Z,81.24
2018-11-07T01:25:03.942Z,81.04
2018-11-07T01:26:04.460Z,81.52
2018-11-07T01:27:05.813Z,81.52
2018-11-07T01:28:07.030Z,81.18
2018-11-07T01:29:07.692Z,81.71
2018-11-07T01:30:09.046Z,81.9
2018-11-07T01:31:09.569Z,81.71
2018-11-07T01:32:10.371Z,82.09
2018-11-07T01:33:11.322Z,82.09
2018-11-07T01:34:11.843Z,81.62
2018-11-07T01:35:12.927Z,81.81
2018-11-07T01:36:13.833Z,81.9
2018-11-07T01:37:14.634Z,82.38
2018-11-07T01:38:15.437Z,82.29
2018-11-07T01:39:16.675Z,82.57
2018-11-07T01:40:17.757Z,82.48
2018-11-07T01:41:18.828Z,81.14
2018-11-07T01:42:20.189Z,81.62
2018-11-07T01:43:20.762Z,82
2018-11-07T01:44:21.843Z,81.62
2018-11-07T01:45:22.362Z,81.81
2018-11-07T01:46:23.718Z,81.62
2018-11-07T01:47:23.805Z,81.43
2018-11-07T01:48:25.157Z,81.81
2018-11-07T01:49:25.514Z,82.09
2018-11-07T01:50:25.750Z,82.38
2018-11-07T01:51:26.834Z,82.67
2018-11-07T01:52:27.903Z,82.57
2018-11-07T01:53:28.187Z,82.48
2018-11-07T01:54:28.985Z,82.19
2018-11-07T01:55:29.055Z,82.09
2018-11-07T01:56:29.683Z,82.38
2018-11-07T01:57:30.482Z,82.38
2018-11-07T01:58:31.274Z,82
2018-11-07T01:59:32.622Z,82
2018-11-07T02:00:32.968Z,81.81
2018-11-07T02:01:33.759Z,81.33
2018-11-07T02:02:35.385Z,81.24
2018-11-07T02:03:35.392Z,81.04
2018-11-07T02:04:36.462Z,81.52
2018-11-07T02:05:37.808Z,81.62
2018-11-07T02:06:38.601Z,81.9
2018-11-07T02:07:39.395Z,82.57
2018-11-07T02:08:39.746Z,82.67
2018-11-07T02:09:40.812Z,83.05
2018-11-07T02:10:41.602Z,82.48
2018-11-07T02:11:42.116Z,82.95
2018-11-07T02:12:43.473Z,83.14
2018-11-07T02:13:43.308Z,82.76
2018-11-07T02:14:44.376Z,82.91
2018-11-07T02:15:45.897Z,83.77
2018-11-07T02:16:45.967Z,84.16
2018-11-07T02:17:46.760Z,84.53
2018-11-07T02:18:48.274Z,84.44
2018-11-07T02:19:49.069Z,84.92
2018-11-07T02:20:50.189Z,85.87
2018-11-07T02:21:51.699Z,86.44
2018-11-07T02:22:52.264Z,87.49
2018-11-07T02:23:53.388Z,87.4
2018-11-07T02:24:54.905Z,86.73
2018-11-07T02:25:55.147Z,87.02
2018-11-07T02:26:56.493Z,86.16
2018-11-07T02:27:56.733Z,86.02
2018-11-07T02:28:57.803Z,86.98
2018-11-07T02:29:58.595Z,87.83
2018-11-07T02:30:59.665Z,89.31
2018-11-07T02:32:00.472Z,90.84
2018-11-07T02:33:01.823Z,91.74
2018-11-07T02:34:02.242Z,92.69
2018-11-07T02:35:03.045Z,93.84
2018-11-07T02:36:04.412Z,95.7
2018-11-07T02:37:06.129Z,96.84
2018-11-07T02:38:06.146Z,97.89
2018-11-07T02:39:06.768Z,98.18
2018-11-07T02:40:07.562Z,98.18
2018-11-07T02:41:08.636Z,98.08
2018-11-07T02:42:09.438Z,98.46
2018-11-07T02:43:10.361Z,98.94
2018-11-07T02:44:11.080Z,98.36
2018-11-07T02:45:11.463Z,97.99
2018-11-07T02:46:12.519Z,98.99
2018-11-07T02:47:13.312Z,99.03
2018-11-07T02:48:14.396Z,98.51
2018-11-07T02:49:14.746Z,97.94
2018-11-07T02:50:15.377Z,97.84
2018-11-07T02:51:16.459Z,97.56
2018-11-07T02:52:17.093Z,97.27
2018-11-07T02:53:18.926Z,96.89
2018-11-07T02:54:19.342Z,96.41
2018-11-07T02:55:21.247Z,96.6
2018-11-07T02:56:21.317Z,97.08
2018-11-07T02:57:22.674Z,96.98
2018-11-07T02:58:22.779Z,97.17
2018-11-07T02:59:24.572Z,96.41
2018-11-07T03:00:25.098Z,96.22
2018-11-07T03:01:26.591Z,95.61
2018-11-07T03:02:27.305Z,94.46
2018-11-07T03:03:28.819Z,93.88
2018-11-07T03:04:29.960Z,92.74
2018-11-07T03:05:30.751Z,92.93
2018-11-07T03:06:31.821Z,92.46
2018-11-07T03:07:32.449Z,92.65
2018-11-07T03:08:33.244Z,91.83
2018-11-07T03:09:33.622Z,91.79
2018-11-07T03:10:34.609Z,91.69
2018-11-07T03:11:34.551Z,92.55
2018-11-07T03:12:34.640Z,92.84
2018-11-07T03:13:34.988Z,93.03
2018-11-07T03:14:36.395Z,92.27
2018-11-07T03:15:37.497Z,92.36
2018-11-07T03:16:37.573Z,93.12
2018-11-07T03:17:39.095Z,92.65
2018-11-07T03:18:39.611Z,92.08
2018-11-07T03:19:40.414Z,91.69
2018-11-07T03:20:41.764Z,91.6
2018-11-07T03:21:42.955Z,91.41
2018-11-07T03:22:44.163Z,91.83
2018-11-07T03:23:44.497Z,91.55
2018-11-07T03:24:46.193Z,91.22
2018-11-07T03:25:46.822Z,91.69
2018-11-07T03:26:47.168Z,91.03
2018-11-07T03:27:48.082Z,91.36
2018-11-07T03:28:49.156Z,90.22
2018-11-07T03:29:49.847Z,90.5
2018-11-07T03:30:50.925Z,90.74
2018-11-07T03:31:51.478Z,90.55
2018-11-07T03:32:52.677Z,90.74
2018-11-07T03:33:53.745Z,90.55
2018-11-07T03:34:54.464Z,90.84
2018-11-07T03:35:56.092Z,91.79
2018-11-07T03:36:56.447Z,92.27
2018-11-07T03:37:57.523Z,93.22
2018-11-07T03:38:57.879Z,93.88
2018-11-07T03:39:59.153Z,94.32
2018-11-07T03:41:00.065Z,94.51
2018-11-07T03:42:01.147Z,95.46
2018-11-07T03:43:01.942Z,96.89
2018-11-07T03:44:03.033Z,96.8
2018-11-07T03:45:04.180Z,96.41
2018-11-07T03:46:05.021Z,95.65
2018-11-07T03:47:17.860Z,93.55
2018-11-07T03:48:19.262Z,93.17
2018-11-07T03:49:19.347Z,92.84
2018-11-07T03:50:20.699Z,92.93
2018-11-07T03:51:21.050Z,92.74
2018-11-07T03:52:22.688Z,93.32
2018-11-07T03:53:24.161Z,93.7
2018-11-07T03:54:24.259Z,94.08
2018-11-07T03:55:25.335Z,94.17
2018-11-07T03:56:25.694Z,94.98
2018-11-07T03:57:26.043Z,95.08
2018-11-07T03:58:27.160Z,94.98
2018-11-07T03:59:28.511Z,94.22
2018-11-07T04:00:29.148Z,94.22
2018-11-07T04:01:30.064Z,93.51
2018-11-07T04:02:30.855Z,92.84
2018-11-07T04:03:31.646Z,92.84
2018-11-07T04:04:32.306Z,92.08
2018-11-07T04:05:33.472Z,91.98
2018-11-07T04:06:33.835Z,91.79
2018-11-07T04:07:34.906Z,91.6
2018-11-07T04:08:36.298Z,91.6
2018-11-07T04:09:37.094Z,90.36
2018-11-07T04:10:38.257Z,90.17
2018-11-07T04:11:38.889Z,90.55
2018-11-07T04:12:39.568Z,91.41
2018-11-07T04:13:39.803Z,91.22
2018-11-07T04:14:41.427Z,91.22
2018-11-07T04:15:42.052Z,92.27
2018-11-07T04:16:42.401Z,92.84
2018-11-07T04:17:42.471Z,93.84
2018-11-07T04:18:43.305Z,94.13
2018-11-07T04:19:44.102Z,93.93
2018-11-07T04:20:45.175Z,93.84
2018-11-07T04:21:45.693Z,93.74
2018-11-07T04:22:47.036Z,93.46
2018-11-07T04:23:48.387Z,94.98
2018-11-07T04:24:48.910Z,95.75
2018-11-07T04:25:49.704Z,96.55
2018-11-07T04:26:50.776Z,97.22
2018-11-07T04:27:52.126Z,97.99
2018-11-07T04:28:53.102Z,97.89
2018-11-07T04:29:54.722Z,98.94
2018-11-07T04:30:55.796Z,98.65
2018-11-07T04:31:55.869Z,99.03
2018-11-07T04:32:57.229Z,98.65
2018-11-07T04:33:58.028Z,98.65
2018-11-07T04:34:58.660Z,98.74
2018-11-07T04:35:59.749Z,98.84
2018-11-07T04:36:59.815Z,98.36
2018-11-07T04:38:01.050Z,99.03
2018-11-07T04:39:02.521Z,98.27
2018-11-07T04:40:02.776Z,98.18
2018-11-07T04:41:03.854Z,98.46
2018-11-07T04:42:04.758Z,99.13
2018-11-07T04:43:05.559Z,99.13
2018-11-07T04:44:07.208Z,98.94
2018-11-07T04:45:08.563Z,98.36
2018-11-07T04:46:08.922Z,99.13
2018-11-07T04:47:09.722Z,98.18
2018-11-07T04:48:10.068Z,99.22
2018-11-07T04:49:11.463Z,99.99
2018-11-07T04:50:13.087Z,99.99
2018-11-07T04:51:13.432Z,99.99
2018-11-07T04:52:13.817Z,99.99
2018-11-07T04:53:15.445Z,99.99
2018-11-07T04:54:15.808Z,99.99
2018-11-07T04:55:17.151Z,99.99
2018-11-07T04:56:17.945Z,99.99
2018-11-07T04:57:18.734Z,99.51
2018-11-07T04:58:19.530Z,99.98
2018-11-07T04:59:20.128Z,99.99
2018-11-07T05:00:21.868Z,99.99
2018-11-07T05:01:22.120Z,99.98
2018-11-07T05:02:23.192Z,99.99
2018-11-07T05:03:23.986Z,99.99
2018-11-07T05:04:24.779Z,99.6
2018-11-07T05:05:25.851Z,99.13
2018-11-07T05:06:26.479Z,99.32
2018-11-07T05:07:27.711Z,99.13
2018-11-07T05:08:29.324Z,99.6
2018-11-07T05:09:30.422Z,99.99
2018-11-07T05:10:30.933Z,99.99
2018-11-07T05:11:31.721Z,99.99
2018-11-07T05:12:32.509Z,99.99
2018-11-07T05:13:32.748Z,99.99
2018-11-07T05:14:33.259Z,99.99
2018-11-07T05:15:34.332Z,99.99
2018-11-07T05:16:34.400Z,99.99
2018-11-07T05:17:35.190Z,99.99
2018-11-07T05:18:35.716Z,99.99
2018-11-07T05:19:36.841Z,99.99
2018-11-07T05:20:36.701Z,99.99
2018-11-07T05:21:38.047Z,99.99
2018-11-07T05:22:38.397Z,99.79
2018-11-07T05:23:39.191Z,99.13
2018-11-07T05:24:39.704Z,98.27
2018-11-07T05:25:40.220Z,97.89
2018-11-07T05:26:41.579Z,98.32
2018-11-07T05:27:41.928Z,98.27
2018-11-07T05:28:42.734Z,98.18
2018-11-07T05:29:43.597Z,97.79
2018-11-07T05:30:44.112Z,97.79
2018-11-07T05:31:46.017Z,98.08
2018-11-07T05:32:46.506Z,97.13
2018-11-07T05:33:47.021Z,97.6
2018-11-07T05:34:48.092Z,97.03
2018-11-07T05:35:48.888Z,97.56
2018-11-07T05:36:49.685Z,96.89
2018-11-07T05:37:50.480Z,96.94
2018-11-07T05:38:51.271Z,96.98
2018-11-07T05:39:52.411Z,96.22
2018-11-07T05:40:53.867Z,96.41
2018-11-07T05:41:53.529Z,96.12
2018-11-07T05:42:54.878Z,96.7
2018-11-07T05:43:55.393Z,96.41
2018-11-07T05:44:56.465Z,96.6
2018-11-07T05:45:57.091Z,97.13
2018-11-07T05:46:57.604Z,97.03
2018-11-07T05:47:59.117Z,97.22
2018-11-07T05:49:00.074Z,97.13
2018-11-07T05:50:00.493Z,98.08
2018-11-07T05:51:01.008Z,98.36
2018-11-07T05:52:02.110Z,98.36
2018-11-07T05:53:03.180Z,99.98
2018-11-07T05:54:03.973Z,99.6
2018-11-07T05:55:04.489Z,99.79
2018-11-07T05:56:05.562Z,99.32
2018-11-07T05:57:06.355Z,99.69
2018-11-07T05:58:07.872Z,99.22
2018-11-07T05:59:08.221Z,99.99
2018-11-07T06:00:09.063Z,99.99
2018-11-07T06:01:09.695Z,99.99
2018-11-07T06:02:10.052Z,99.99
2018-11-07T06:03:11.396Z,99.99
2018-11-07T06:04:11.913Z,99.99
2018-11-07T06:05:12.817Z,99.99
2018-11-07T06:06:13.231Z,99.98
2018-11-07T06:07:13.302Z,99.98
2018-11-07T06:08:14.095Z,99.79
2018-11-07T06:09:14.906Z,99.22
2018-11-07T06:10:15.469Z,98.74
2018-11-07T06:11:16.544Z,99.13
2018-11-07T06:12:16.898Z,98.36
2018-11-07T06:13:17.693Z,98.27
2018-11-07T06:14:18.208Z,98.46
2018-11-07T06:15:18.999Z,98.27
2018-11-07T06:16:20.393Z,98.46
2018-11-07T06:17:20.804Z,98.94
2018-11-07T06:18:22.159Z,98.65
2018-11-07T06:19:22.510Z,98.65
2018-11-07T06:20:23.356Z,99.13
2018-11-07T06:21:24.156Z,98.94
2018-11-07T06:22:24.226Z,99.03
2018-11-07T06:23:25.745Z,98.65
2018-11-07T06:24:26.624Z,99.6
2018-11-07T06:25:28.246Z,99.99
2018-11-07T06:26:28.757Z,99.99
2018-11-07T06:27:28.560Z,99.99
2018-11-07T06:28:29.909Z,99.89
2018-11-07T06:29:30.428Z,99.79
2018-11-07T06:30:31.346Z,99.69
2018-11-07T06:31:31.864Z,99.79
2018-11-07T06:32:32.658Z,99.99
2018-11-07T06:33:34.009Z,99.79
2018-11-07T06:34:35.084Z,99.32
2018-11-07T06:35:36.603Z,99.79
2018-11-07T06:36:37.955Z,99.99
2018-11-07T06:37:38.585Z,99.99
2018-11-07T06:38:39.378Z,99.99
2018-11-07T06:39:39.618Z,99.98
2018-11-07T06:40:41.038Z,99.6
2018-11-07T06:41:42.390Z,99.41
2018-11-07T06:42:42.907Z,99.89
2018-11-07T06:43:43.706Z,99.99
2018-11-07T06:44:45.060Z,99.51
2018-11-07T06:45:45.132Z,99.13
2018-11-07T06:46:45.769Z,98.46
2018-11-07T06:47:46.574Z,98.36
2018-11-07T06:48:46.921Z,97.7
2018-11-07T06:49:47.993Z,97.65
2018-11-07T06:50:48.392Z,97.08
2018-11-07T06:51:49.186Z,97.56
2018-11-07T06:52:50.704Z,97.41
2018-11-07T06:53:51.331Z,98.08
2018-11-07T06:54:52.425Z,98.27
2018-11-07T06:55:53.630Z,99.13
2018-11-07T06:56:54.422Z,99.99
2018-11-07T06:57:54.941Z,99.99
2018-11-07T06:58:56.301Z,99.99
2018-11-07T06:59:56.653Z,99.99
2018-11-07T07:00:58.351Z,99.99
2018-11-07T07:01:58.989Z,99.99
2018-11-07T07:02:59.792Z,99.99
2018-11-07T07:04:00.143Z,99.99
2018-11-07T07:05:00.984Z,99.99
2018-11-07T07:06:02.342Z,99.99
2018-11-07T07:07:03.298Z,99.98
2018-11-07T07:08:04.313Z,99.79
2018-11-07T07:09:05.111Z,99.51
2018-11-07T07:10:05.905Z,99.22
2018-11-07T07:11:06.658Z,99.13
2018-11-07T07:12:07.303Z,99.03
2018-11-07T07:13:08.284Z,99.13
2018-11-07T07:14:09.360Z,99.13
2018-11-07T07:15:10.439Z,99.03
2018-11-07T07:16:10.800Z,99.37
2018-11-07T07:17:11.594Z,99.37
2018-11-07T07:18:12.838Z,99.27
2018-11-07T07:19:13.069Z,99.27
2018-11-07T07:20:14.423Z,98.03
2018-11-07T07:21:15.549Z,98.22
2018-11-07T07:22:15.959Z,97.46
2018-11-07T07:23:17.029Z,97.46
2018-11-07T07:24:18.434Z,97.27
2018-11-07T07:25:19.229Z,96.98
2018-11-07T07:26:19.749Z,97.17
2018-11-07T07:27:20.267Z,97.56
2018-11-07T07:28:21.174Z,97.56
2018-11-07T07:29:21.697Z,97.08
2018-11-07T07:30:23.823Z,96.7
2018-11-07T07:31:23.946Z,96.89
2018-11-07T07:32:24.469Z,96.7
2018-11-07T07:33:25.954Z,95.7
2018-11-07T07:34:25.859Z,95.51
2018-11-07T07:35:27.651Z,94.65
2018-11-07T07:36:29.007Z,94.27
2018-11-07T07:37:29.529Z,95.41
2018-11-07T07:38:30.609Z,94.93
2018-11-07T07:39:31.130Z,95.12
2018-11-07T07:40:31.926Z,95.12
2018-11-07T07:41:32.763Z,94.56
2018-11-07T07:42:33.835Z,93.98
2018-11-07T07:43:34.635Z,94.27
2018-11-07T07:44:35.720Z,94.27
2018-11-07T07:45:36.932Z,94.65
2018-11-07T07:46:38.244Z,95.32
2018-11-07T07:47:39.041Z,94.74
2018-11-07T07:48:39.672Z,94.65
2018-11-07T07:49:40.304Z,94.46
2018-11-07T07:50:41.176Z,94.27
2018-11-07T07:51:42.364Z,94.84
2018-11-07T07:52:42.731Z,95.41
2018-11-07T07:53:43.779Z,95.7
2018-11-07T07:54:44.381Z,96.12
2018-11-07T07:55:45.181Z,95.79
2018-11-07T07:56:45.814Z,95.03
2018-11-07T07:57:46.617Z,95.32
2018-11-07T07:58:47.979Z,94.74
2018-11-07T07:59:48.884Z,94.27
2018-11-07T08:00:50.235Z,94.27
2018-11-07T08:01:51.440Z,95.12
2018-11-07T08:02:51.962Z,95.32
2018-11-07T08:03:53.041Z,94.17
2018-11-07T08:04:53.841Z,94.08
2018-11-07T08:05:54.369Z,93.79
2018-11-07T08:06:56.031Z,94.08
2018-11-07T08:07:56.540Z,93.98
2018-11-07T08:08:57.616Z,94.74
2018-11-07T08:09:58.142Z,95.22
2018-11-07T08:10:58.665Z,95.22
2018-11-07T08:11:59.125Z,94.89
2018-11-07T08:13:00.214Z,94.56
2018-11-07T08:14:01.997Z,94.17
2018-11-07T08:15:02.150Z,93.22
2018-11-07T08:16:03.065Z,92.93
2018-11-07T08:17:03.585Z,93.22
2018-11-07T08:18:04.947Z,91.69
2018-11-07T08:19:05.470Z,91.07
2018-11-07T08:20:05.992Z,90.79
2018-11-07T08:21:07.106Z,90.12
2018-11-07T08:22:07.433Z,89.93
2018-11-07T08:23:08.792Z,89.64
2018-11-07T08:24:08.590Z,89.36
2018-11-07T08:25:09.784Z,89.64
2018-11-07T08:26:10.694Z,90.03
2018-11-07T08:26:22.464Z,89.74
2018-11-07T08:27:22.898Z,90.22
2018-11-07T08:28:23.422Z,90.5
2018-11-07T08:29:24.219Z,90.36
2018-11-07T08:30:25.302Z,90.45
2018-11-07T08:31:25.825Z,91.31
2018-11-07T08:32:26.347Z,92.03
2018-11-07T08:33:26.867Z,92.5
2018-11-07T08:34:27.942Z,93.55
2018-11-07T08:35:29.012Z,94.41
2018-11-07T08:36:30.094Z,94.32
2018-11-07T08:37:31.053Z,93.36
2018-11-07T08:38:32.410Z,92.74
2018-11-07T08:39:34.093Z,91.98
2018-11-07T08:40:34.892Z,91.02
2018-11-07T08:41:35.247Z,90.55
2018-11-07T08:42:35.772Z,89.69
2018-11-07T08:43:36.293Z,89.97
2018-11-07T08:44:37.090Z,89.83
2018-11-07T08:45:37.599Z,90.26
2018-11-07T08:46:38.638Z,90.45
2018-11-07T08:47:39.574Z,90.93
2018-11-07T08:48:40.352Z,91.21
2018-11-07T08:49:41.306Z,89.45
2018-11-07T08:50:42.334Z,88.11
2018-11-07T08:51:42.963Z,86.58
2018-11-07T08:52:43.602Z,86.58
2018-11-07T08:53:44.397Z,86.39
2018-11-07T08:54:45.865Z,85.19
2018-11-07T08:55:46.362Z,83.76
2018-11-07T08:56:48.271Z,82.71
2018-11-07T08:57:48.589Z,82.71
2018-11-07T08:58:50.038Z,82.14
2018-11-07T08:59:50.539Z,82.18
2018-11-07T09:00:51.241Z,80.61
2018-11-07T09:01:51.939Z,80.46
2018-11-07T09:02:52.301Z,80.74
2018-11-07T09:03:52.820Z,80.27
2018-11-07T09:04:54.351Z,79.22
2018-11-07T09:05:55.163Z,78.93
2018-11-07T09:06:57.124Z,78.74
2018-11-07T09:07:57.474Z,77.06
2018-11-07T09:08:58.555Z,75.91
2018-11-07T09:09:59.355Z,74.61
2018-11-07T09:11:00.440Z,74.04
2018-11-07T09:12:01.619Z,72.44
2018-11-07T09:13:02.392Z,71.58
2018-11-07T09:14:03.748Z,70.76
2018-11-07T09:15:04.556Z,70.56
2018-11-07T09:16:05.081Z,71.42
2018-11-07T09:17:06.718Z,71.14
2018-11-07T09:18:07.012Z,71.75
2018-11-07T09:19:07.650Z,71.08
2018-11-07T09:20:08.672Z,70.31
2018-11-07T09:21:10.034Z,69.54
2018-11-07T09:22:10.122Z,69.29
2018-11-07T09:23:11.758Z,68.81
2018-11-07T09:24:13.104Z,68.91
2018-11-07T09:25:13.242Z,68.24
2018-11-07T09:26:13.767Z,67.95
2018-11-07T09:27:14.572Z,66.26
2018-11-07T09:28:15.590Z,65.52
2018-11-07T09:29:16.975Z,64.66
2018-11-07T09:30:17.566Z,64.85
2018-11-07T09:31:18.655Z,63.03
2018-11-07T09:32:20.298Z,62.87
2018-11-07T09:33:20.657Z,62.48
2018-11-07T09:34:21.750Z,62.32
2018-11-07T09:35:23.116Z,61.65
2018-11-07T09:36:24.065Z,61.2
2018-11-07T09:37:24.084Z,59.66
2018-11-07T09:38:24.935Z,60.43
2018-11-07T09:39:25.951Z,59.22
2018-11-07T09:40:26.401Z,58.54
2018-11-07T09:41:27.487Z,60.14
2018-11-07T09:42:28.016Z,60.34
2018-11-07T09:43:28.821Z,59.66
2018-11-07T09:44:30.179Z,58.89
2018-11-07T09:45:30.818Z,57.84
2018-11-07T09:46:31.183Z,58.8
2018-11-07T09:47:32.019Z,59.54
2018-11-07T09:48:32.610Z,58.58
2018-11-07T09:49:33.860Z,58.87
2018-11-07T09:50:34.677Z,58.8
2018-11-07T09:51:35.201Z,57.87
2018-11-07T09:52:35.729Z,56.71
2018-11-07T09:53:37.427Z,55.85
2018-11-07T09:54:38.083Z,55.66
2018-11-07T09:55:39.126Z,55.78
2018-11-07T09:56:40.317Z,55.49
2018-11-07T09:57:40.920Z,56.45
2018-11-07T09:58:42.268Z,56.45
2018-11-07T09:59:42.683Z,54.36
2018-11-07T10:00:43.546Z,52.83
2018-11-07T10:01:43.912Z,52.37
2018-11-07T10:02:45.007Z,51.12
2018-11-07T10:03:45.814Z,50.76
2018-11-07T10:04:46.623Z,50.85
2018-11-07T10:05:47.198Z,50.69
2018-11-07T10:06:48.284Z,50.98
2018-11-07T10:07:48.654Z,51.92
2018-11-07T10:08:49.830Z,52.01
2018-11-07T10:09:50.209Z,52.08
2018-11-07T10:10:51.305Z,52.11
2018-11-07T10:11:51.670Z,52.66
2018-11-07T10:12:52.757Z,54.3
2018-11-07T10:13:56.183Z,53.98
2018-11-07T10:14:07.614Z,53.72
2018-11-07T10:15:05.878Z,52.66
2018-11-07T10:16:06.383Z,52.27
2018-11-07T10:17:07.743Z,51.92
2018-11-07T10:18:08.108Z,51.62
2018-11-07T10:19:09.067Z,51.62
2018-11-07T10:20:09.863Z,51.62
2018-11-07T10:21:11.012Z,49.63
2018-11-07T10:22:11.268Z,48.47
2018-11-07T10:23:12.799Z,48.38
2018-11-07T10:24:13.613Z,48.21
2018-11-07T10:25:15.025Z,49.77
2018-11-07T10:26:15.391Z,49.39
2018-11-07T10:27:17.839Z,47.96
2018-11-07T10:28:18.093Z,47.36
2018-11-07T10:29:20.586Z,46.97
2018-11-07T10:30:20.818Z,46.33
2018-11-07T10:31:21.175Z,45.38
2018-11-07T10:32:21.821Z,44.53
2018-11-07T10:33:22.634Z,44.24
2018-11-07T10:34:22.785Z,44.73
2018-11-07T10:35:23.764Z,43.95
2018-11-07T10:36:24.180Z,44.24
2018-11-07T10:37:37.504Z,44.22
2018-11-07T10:38:38.616Z,44.9
2018-11-07T10:39:39.618Z,43.93
2018-11-07T10:40:40.690Z,45.11
2018-11-07T10:41:41.057Z,42.6
2018-11-07T10:42:41.592Z,41.93
2018-11-07T10:43:42.909Z,42.31
2018-11-07T10:44:44.406Z,40.98
2018-11-07T10:45:45.268Z,40.03
2018-11-07T10:46:45.985Z,39.26
2018-11-07T10:47:46.561Z,39.26
2018-11-07T10:48:47.209Z,39.36
2018-11-07T10:49:48.020Z,38.89
2018-11-07T10:50:48.834Z,38.79
2018-11-07T10:51:50.446Z,38.31
2018-11-07T10:52:51.320Z,38.21
2018-11-07T10:53:51.928Z,38.31
2018-11-07T10:54:53.150Z,37.92
2018-11-07T10:55:53.801Z,40.83
2018-11-07T10:56:54.621Z,39.86
2018-11-07T10:57:55.145Z,39.11
2018-11-07T10:58:55.591Z,39.11
2018-11-07T10:59:56.847Z,37.19
2018-11-07T11:00:57.660Z,35.73
2018-11-07T11:01:58.752Z,35.93
2018-11-07T11:02:59.849Z,33.91
2018-11-07T11:04:00.215Z,32.47
2018-11-07T11:05:01.816Z,33.92
2018-11-07T11:06:01.500Z,32.86
2018-11-07T11:07:02.591Z,31.31
2018-11-07T11:08:03.238Z,31.5
2018-11-07T11:09:04.120Z,31.6
2018-11-07T11:10:05.777Z,31.5
2018-11-07T11:11:07.688Z,30.34
2018-11-07T11:12:07.584Z,30.92
2018-11-07T11:13:08.739Z,31.41
2018-11-07T11:14:10.002Z,31.5
2018-11-07T11:15:11.260Z,31.5
2018-11-07T11:16:12.085Z,31.12
2018-11-07T11:17:13.218Z,30.44
2018-11-07T11:18:14.438Z,30.54
2018-11-07T11:19:15.184Z,30.54
2018-11-07T11:20:16.000Z,31.02
2018-11-07T11:21:17.534Z,31.21
2018-11-07T11:22:18.625Z,31.49
2018-11-07T11:23:19.998Z,31.68
2018-11-07T11:24:20.946Z,31.67
2018-11-07T11:25:21.486Z,32.54
2018-11-07T11:26:22.381Z,32.15
2018-11-07T11:27:24.039Z,31.87
2018-11-07T11:28:24.135Z,31.78
2018-11-07T11:29:25.161Z,31.97
2018-11-07T11:30:27.598Z,31.68
2018-11-07T11:31:28.541Z,31.86
2018-11-07T11:31:41.727Z,32.06
2018-11-07T11:32:42.369Z,31.18
2018-11-07T11:33:46.405Z,31.87
2018-11-07T11:33:55.985Z,30.91
2018-11-07T11:34:58.465Z,30.81
2018-11-07T11:35:09.175Z,30.71
2018-11-07T11:36:08.699Z,31.68
2018-11-07T11:37:09.429Z,31.39
2018-11-07T11:38:09.518Z,30.63
2018-11-07T11:39:10.436Z,31.1
2018-11-07T11:40:11.265Z,30.91
2018-11-07T11:41:11.995Z,30.69
2018-11-07T11:42:12.748Z,30.69
2018-11-07T11:43:13.281Z,31.26
2018-11-07T11:44:13.866Z,31.84
2018-11-07T11:45:15.241Z,31.74
2018-11-07T11:46:15.788Z,32.23
2018-11-07T11:47:17.604Z,32.23
2018-11-07T11:48:18.518Z,32.42
2018-11-07T11:49:20.541Z,32.62
2018-11-07T11:50:21.238Z,33.2
2018-11-07T11:51:21.611Z,32.62
2018-11-07T11:52:22.137Z,31.94
2018-11-07T11:53:23.253Z,32.04
2018-11-07T11:54:23.883Z,33.01
2018-11-07T11:55:24.413Z,31.74
2018-11-07T11:56:25.549Z,31.74
2018-11-07T11:57:27.945Z,31.65
2018-11-07T11:58:31.841Z,31.26
2018-11-07T11:58:43.472Z,31.36
2018-11-07T11:59:48.077Z,31.65
2018-11-07T11:59:58.162Z,32.14
2018-11-07T12:00:10.823Z,32.62
2018-11-07T12:00:21.678Z,32.33
2018-11-07T12:00:34.398Z,32.04
2018-11-07T12:00:47.413Z,32.14
2018-11-07T12:00:59.251Z,32.23
2018-11-07T12:01:11.376Z,32.23
2018-11-07T12:01:23.918Z,32.23
2018-11-07T12:01:36.949Z,31.84
2018-11-07T12:01:47.518Z,31.94
2018-11-07T12:02:00.330Z,31.94
2018-11-07T12:02:48.372Z,32.04
2018-11-07T12:03:51.467Z,31.74
2018-11-07T12:04:02.749Z,31.94
2018-11-07T12:04:14.689Z,31.84
2018-11-07T12:04:25.865Z,31.94
2018-11-07T12:04:38.862Z,31.94
2018-11-07T12:04:52.160Z,31.74
2018-11-07T12:05:05.360Z,31.84
2018-11-07T12:05:17.852Z,31.94
2018-11-07T12:05:30.225Z,31.56
2018-11-07T12:05:43.018Z,31.44
2018-11-07T12:05:57.661Z,32.12
2018-11-07T12:06:09.651Z,32.41
2018-11-07T12:06:20.993Z,32.51
2018-11-07T12:06:54.326Z,32.79
2018-11-07T12:07:54.111Z,32.89
2018-11-07T12:08:54.857Z,32.97
2018-11-07T12:09:55.501Z,34.23
2018-11-07T12:10:56.863Z,33.65
2018-11-07T12:11:58.062Z,33.94
2018-11-07T12:12:59.084Z,33.94
2018-11-07T12:13:59.608Z,33.94
2018-11-07T12:15:01.384Z,34.13
2018-11-07T12:16:01.059Z,33.84
2018-11-07T12:17:02.421Z,34.62
2018-11-07T12:18:02.969Z,34.13
2018-11-07T12:19:03.777Z,34.02
2018-11-07T12:20:04.863Z,34.02
2018-11-07T12:21:06.105Z,34.89
2018-11-07T12:22:09.623Z,34.02
2018-11-07T12:23:08.146Z,34.41
2018-11-07T12:24:08.976Z,34.31
2018-11-07T12:25:10.052Z,34.52
2018-11-07T12:26:10.579Z,34.81
2018-11-07T12:27:11.393Z,34.33
2018-11-07T12:28:12.814Z,34.83
2018-11-07T12:29:13.623Z,34.25
2018-11-07T12:30:14.428Z,33.67
2018-11-07T12:31:15.718Z,35.52
2018-11-07T12:32:16.355Z,34.15
2018-11-07T12:33:16.883Z,33.01
2018-11-07T12:34:17.973Z,33.37
2018-11-07T12:35:18.787Z,33.78
2018-11-07T12:36:19.961Z,33.59
2018-11-07T12:37:20.617Z,34.55
2018-11-07T12:38:21.190Z,33.69
2018-11-07T12:39:21.838Z,33.01
2018-11-07T12:40:23.210Z,32.52
2018-11-07T12:41:23.017Z,31.86
2018-11-07T12:42:24.411Z,31.76